Terminal Aerodrome Forecast
Issued by NWS

Home | Current Version | Previous Version | Text Only | Print | Product List | Glossary On
Versions: 1 2 3 4 5 6 7 8 9 10 11 12 13 14 15 16 17 18
314
FTUS45 KTFX 220817 AAB
TAFLWT
TAF AMD
KLWT 220817Z 2208/2306 28012KT 4SM -SHSN BR OVC015
      TEMPO 2208/2212 1SM -SN BR OVC003
     FM221500 31007KT 2SM -SHSN BR SCT008 BKN020
     FM221600 32006KT 1 1/2SM -SHSN BR OVC008
      TEMPO 2220/2224 3/4SM -SN BR OVC005=

USA.gov is the U.S. government's official web portal to all federal, state and local government web resources and services.